sensor_id;sensor_type;location;lat;lon;timestamp;P1;durP1;ratioP1;P2;durP2;ratioP2
9948;SDS011;5013;51.840;8.276;2022-11-13T00:00:19;20.20;;;15.00;;
9948;SDS011;5013;51.840;8.276;2022-11-13T00:02:44;17.40;;;15.60;;
9948;SDS011;5013;51.840;8.276;2022-11-13T00:05:10;20.93;;;15.57;;
9948;SDS011;5013;51.840;8.276;2022-11-13T00:07:36;18.43;;;16.37;;
9948;SDS011;5013;51.840;8.276;2022-11-13T00:10:01;20.37;;;16.67;;
9948;SDS011;5013;51.840;8.276;2022-11-13T00:12:27;22.07;;;15.80;;
9948;SDS011;5013;51.840;8.276;2022-11-13T00:14:53;21.00;;;15.50;;
9948;SDS011;5013;51.840;8.276;2022-11-13T00:17:19;19.20;;;15.77;;
9948;SDS011;5013;51.840;8.276;2022-11-13T00:19:44;18.90;;;15.93;;
9948;SDS011;5013;51.840;8.276;2022-11-13T00:22:10;20.93;;;16.67;;
9948;SDS011;5013;51.840;8.276;2022-11-13T00:24:35;22.13;;;16.87;;
9948;SDS011;5013;51.840;8.276;2022-11-13T00:27:01;18.43;;;16.50;;
9948;SDS011;5013;51.840;8.276;2022-11-13T00:29:26;19.00;;;16.00;;
9948;SDS011;5013;51.840;8.276;2022-11-13T00:31:52;21.63;;;17.93;;
9948;SDS011;5013;51.840;8.276;2022-11-13T00:34:17;20.13;;;15.90;;
9948;SDS011;5013;51.840;8.276;2022-11-13T00:36:43;23.07;;;17.30;;
9948;SDS011;5013;51.840;8.276;2022-11-13T00:39:09;19.47;;;17.27;;
9948;SDS011;5013;51.840;8.276;2022-11-13T00:41:34;22.53;;;16.60;;
9948;SDS011;5013;51.840;8.276;2022-11-13T00:44:00;23.30;;;16.50;;
9948;SDS011;5013;51.840;8.276;2022-11-13T00:46:27;20.80;;;15.70;;
9948;SDS011;5013;51.840;8.276;2022-11-13T00:48:53;19.03;;;16.57;;
9948;SDS011;5013;51.840;8.276;2022-11-13T00:51:19;24.97;;;16.63;;
9948;SDS011;5013;51.840;8.276;2022-11-13T00:53:45;19.80;;;15.83;;
9948;SDS011;5013;51.840;8.276;2022-11-13T00:56:10;18.33;;;16.17;;
9948;SDS011;5013;51.840;8.276;2022-11-13T00:58:36;19.33;;;16.03;;
9948;SDS011;5013;51.840;8.276;2022-11-13T01:04:35;18.83;;;15.53;;
9948;SDS011;5013;51.840;8.276;2022-11-13T01:07:01;16.70;;;14.53;;
9948;SDS011;5013;51.840;8.276;2022-11-13T01:09:27;17.90;;;14.97;;
9948;SDS011;5013;51.840;8.276;2022-11-13T01:11:52;17.93;;;15.03;;
9948;SDS011;5013;51.840;8.276;2022-11-13T01:14:18;17.97;;;15.17;;
9948;SDS011;5013;51.840;8.276;2022-11-13T01:16:43;18.10;;;14.93;;
9948;SDS011;5013;51.840;8.276;2022-11-13T01:19:09;18.13;;;15.03;;
9948;SDS011;5013;51.840;8.276;2022-11-13T01:21:34;17.23;;;14.53;;
9948;SDS011;5013;51.840;8.276;2022-11-13T01:24:00;17.63;;;14.57;;
9948;SDS011;5013;51.840;8.276;2022-11-13T01:26:27;18.10;;;14.60;;
9948;SDS011;5013;51.840;8.276;2022-11-13T01:28:55;16.03;;;14.23;;
9948;SDS011;5013;51.840;8.276;2022-11-13T01:31:22;17.40;;;14.50;;
9948;SDS011;5013;51.840;8.276;2022-11-13T01:33:49;19.23;;;14.80;;
9948;SDS011;5013;51.840;8.276;2022-11-13T01:36:16;16.93;;;14.30;;
9948;SDS011;5013;51.840;8.276;2022-11-13T01:38:50;16.37;;;14.27;;
9948;SDS011;5013;51.840;8.276;2022-11-13T01:41:23;16.10;;;14.50;;
9948;SDS011;5013;51.840;8.276;2022-11-13T01:43:51;16.13;;;14.03;;
9948;SDS011;5013;51.840;8.276;2022-11-13T01:46:33;19.53;;;15.70;;
9948;SDS011;5013;51.840;8.276;2022-11-13T01:54:07;18.17;;;14.37;;
9948;SDS011;5013;51.840;8.276;2022-11-13T01:56:36;17.97;;;14.87;;
9948;SDS011;5013;51.840;8.276;2022-11-13T01:59:06;14.83;;;12.93;;
9948;SDS011;5013;51.840;8.276;2022-11-13T02:01:36;17.10;;;13.93;;
9948;SDS011;5013;51.840;8.276;2022-11-13T02:04:01;15.80;;;13.90;;
9948;SDS011;5013;51.840;8.276;2022-11-13T02:06:28;16.47;;;13.77;;
9948;SDS011;5013;51.840;8.276;2022-11-13T02:08:59;17.67;;;14.47;;
9948;SDS011;5013;51.840;8.276;2022-11-13T02:11:25;15.43;;;13.83;;
9948;SDS011;5013;51.840;8.276;2022-11-13T02:13:50;19.00;;;14.20;;
9948;SDS011;5013;51.840;8.276;2022-11-13T02:16:16;15.80;;;13.70;;
9948;SDS011;5013;51.840;8.276;2022-11-13T02:18:43;17.03;;;14.13;;
9948;SDS011;5013;51.840;8.276;2022-11-13T02:21:12;16.03;;;14.33;;
9948;SDS011;5013;51.840;8.276;2022-11-13T02:24:44;15.13;;;13.27;;
9948;SDS011;5013;51.840;8.276;2022-11-13T02:27:05;14.63;;;13.07;;
9948;SDS011;5013;51.840;8.276;2022-11-13T02:29:35;15.30;;;13.17;;
9948;SDS011;5013;51.840;8.276;2022-11-13T02:32:01;14.47;;;12.97;;
9948;SDS011;5013;51.840;8.276;2022-11-13T02:34:26;14.77;;;13.17;;
9948;SDS011;5013;51.840;8.276;2022-11-13T02:36:52;17.43;;;13.80;;
9948;SDS011;5013;51.840;8.276;2022-11-13T02:39:17;15.93;;;12.70;;
9948;SDS011;5013;51.840;8.276;2022-11-13T02:41:43;15.20;;;13.27;;
9948;SDS011;5013;51.840;8.276;2022-11-13T02:44:09;17.33;;;13.00;;
9948;SDS011;5013;51.840;8.276;2022-11-13T02:46:34;15.30;;;13.70;;
9948;SDS011;5013;51.840;8.276;2022-11-13T02:49:00;18.23;;;13.77;;
9948;SDS011;5013;51.840;8.276;2022-11-13T02:51:26;18.40;;;13.43;;
9948;SDS011;5013;51.840;8.276;2022-11-13T02:53:52;15.10;;;13.00;;
9948;SDS011;5013;51.840;8.276;2022-11-13T02:56:18;15.90;;;12.70;;
9948;SDS011;5013;51.840;8.276;2022-11-13T02:58:44;16.83;;;14.47;;
9948;SDS011;5013;51.840;8.276;2022-11-13T03:01:09;15.23;;;12.63;;
9948;SDS011;5013;51.840;8.276;2022-11-13T03:03:35;15.50;;;13.43;;
9948;SDS011;5013;51.840;8.276;2022-11-13T03:06:00;15.17;;;13.47;;
9948;SDS011;5013;51.840;8.276;2022-11-13T03:08:26;20.63;;;13.33;;
9948;SDS011;5013;51.840;8.276;2022-11-13T03:10:52;17.80;;;13.23;;
9948;SDS011;5013;51.840;8.276;2022-11-13T03:13:18;13.73;;;12.23;;
9948;SDS011;5013;51.840;8.276;2022-11-13T03:15:43;17.43;;;12.13;;
9948;SDS011;5013;51.840;8.276;2022-11-13T03:18:09;14.80;;;12.37;;
9948;SDS011;5013;51.840;8.276;2022-11-13T03:20:36;14.67;;;13.10;;
9948;SDS011;5013;51.840;8.276;2022-11-13T03:23:06;13.60;;;12.20;;
9948;SDS011;5013;51.840;8.276;2022-11-13T03:25:32;14.70;;;13.17;;
9948;SDS011;5013;51.840;8.276;2022-11-13T03:27:58;15.70;;;13.17;;
9948;SDS011;5013;51.840;8.276;2022-11-13T03:30:24;14.87;;;12.27;;
9948;SDS011;5013;51.840;8.276;2022-11-13T03:32:56;16.30;;;13.37;;
9948;SDS011;5013;51.840;8.276;2022-11-13T03:35:22;14.17;;;12.33;;
9948;SDS011;5013;51.840;8.276;2022-11-13T03:37:48;15.30;;;12.87;;
9948;SDS011;5013;51.840;8.276;2022-11-13T03:40:14;14.37;;;12.83;;
9948;SDS011;5013;51.840;8.276;2022-11-13T03:42:40;15.47;;;13.03;;
9948;SDS011;5013;51.840;8.276;2022-11-13T03:45:06;15.43;;;13.27;;
9948;SDS011;5013;51.840;8.276;2022-11-13T03:47:32;16.97;;;13.00;;
9948;SDS011;5013;51.840;8.276;2022-11-13T03:49:57;15.20;;;13.20;;
9948;SDS011;5013;51.840;8.276;2022-11-13T03:52:23;16.50;;;13.53;;
9948;SDS011;5013;51.840;8.276;2022-11-13T03:54:48;15.17;;;12.73;;
9948;SDS011;5013;51.840;8.276;2022-11-13T03:57:14;14.67;;;12.93;;
9948;SDS011;5013;51.840;8.276;2022-11-13T03:59:39;14.07;;;12.40;;
9948;SDS011;5013;51.840;8.276;2022-11-13T04:02:05;14.97;;;12.20;;
9948;SDS011;5013;51.840;8.276;2022-11-13T04:04:31;14.93;;;11.60;;
9948;SDS011;5013;51.840;8.276;2022-11-13T04:06:56;14.87;;;12.90;;
9948;SDS011;5013;51.840;8.276;2022-11-13T04:09:22;13.53;;;12.13;;
9948;SDS011;5013;51.840;8.276;2022-11-13T04:11:47;14.07;;;12.00;;
9948;SDS011;5013;51.840;8.276;2022-11-13T04:14:13;17.83;;;11.63;;
9948;SDS011;5013;51.840;8.276;2022-11-13T04:16:38;14.10;;;11.30;;
9948;SDS011;5013;51.840;8.276;2022-11-13T04:19:04;14.83;;;11.97;;
9948;SDS011;5013;51.840;8.276;2022-11-13T04:21:30;13.50;;;11.67;;
9948;SDS011;5013;51.840;8.276;2022-11-13T04:23:55;12.90;;;11.57;;
9948;SDS011;5013;51.840;8.276;2022-11-13T04:26:21;12.53;;;11.20;;
9948;SDS011;5013;51.840;8.276;2022-11-13T04:28:47;13.20;;;10.83;;
9948;SDS011;5013;51.840;8.276;2022-11-13T04:31:12;12.47;;;10.63;;
9948;SDS011;5013;51.840;8.276;2022-11-13T04:33:38;15.77;;;11.27;;
9948;SDS011;5013;51.840;8.276;2022-11-13T04:36:03;13.63;;;11.03;;
9948;SDS011;5013;51.840;8.276;2022-11-13T04:38:29;12.57;;;11.17;;
9948;SDS011;5013;51.840;8.276;2022-11-13T04:40:55;14.03;;;11.33;;
9948;SDS011;5013;51.840;8.276;2022-11-13T04:43:39;11.70;;;9.90;;
9948;SDS011;5013;51.840;8.276;2022-11-13T04:46:04;13.73;;;10.40;;
9948;SDS011;5013;51.840;8.276;2022-11-13T04:48:30;11.93;;;10.43;;
9948;SDS011;5013;51.840;8.276;2022-11-13T04:50:56;14.33;;;10.97;;
9948;SDS011;5013;51.840;8.276;2022-11-13T04:53:21;16.40;;;10.93;;
9948;SDS011;5013;51.840;8.276;2022-11-13T04:55:47;13.43;;;11.07;;
9948;SDS011;5013;51.840;8.276;2022-11-13T04:58:18;12.67;;;11.20;;
9948;SDS011;5013;51.840;8.276;2022-11-13T05:04:25;12.50;;;10.93;;
9948;SDS011;5013;51.840;8.276;2022-11-13T05:06:51;12.57;;;10.20;;
9948;SDS011;5013;51.840;8.276;2022-11-13T05:09:16;11.57;;;10.37;;
9948;SDS011;5013;51.840;8.276;2022-11-13T05:11:42;12.40;;;10.63;;
9948;SDS011;5013;51.840;8.276;2022-11-13T05:14:09;12.80;;;9.87;;
9948;SDS011;5013;51.840;8.276;2022-11-13T05:16:35;12.47;;;9.90;;
9948;SDS011;5013;51.840;8.276;2022-11-13T05:19:01;11.60;;;9.33;;
9948;SDS011;5013;51.840;8.276;2022-11-13T05:21:31;13.03;;;9.67;;
9948;SDS011;5013;51.840;8.276;2022-11-13T05:23:57;10.97;;;9.00;;
9948;SDS011;5013;51.840;8.276;2022-11-13T05:26:23;9.97;;;8.97;;
9948;SDS011;5013;51.840;8.276;2022-11-13T05:28:50;9.57;;;8.57;;
9948;SDS011;5013;51.840;8.276;2022-11-13T05:31:16;13.13;;;8.97;;
9948;SDS011;5013;51.840;8.276;2022-11-13T05:33:42;9.63;;;8.57;;
9948;SDS011;5013;51.840;8.276;2022-11-13T05:36:09;8.30;;;7.50;;
9948;SDS011;5013;51.840;8.276;2022-11-13T05:38:39;12.03;;;8.70;;
9948;SDS011;5013;51.840;8.276;2022-11-13T05:46:53;9.50;;;8.53;;
9948;SDS011;5013;51.840;8.276;2022-11-13T05:49:18;8.13;;;7.33;;
9948;SDS011;5013;51.840;8.276;2022-11-13T05:51:44;9.80;;;7.87;;
9948;SDS011;5013;51.840;8.276;2022-11-13T05:57:32;8.40;;;7.37;;
9948;SDS011;5013;51.840;8.276;2022-11-13T05:59:57;7.33;;;6.57;;
9948;SDS011;5013;51.840;8.276;2022-11-13T06:05:45;8.70;;;7.87;;
9948;SDS011;5013;51.840;8.276;2022-11-13T06:08:11;8.73;;;7.87;;
9948;SDS011;5013;51.840;8.276;2022-11-13T06:10:36;8.30;;;7.50;;
9948;SDS011;5013;51.840;8.276;2022-11-13T06:13:02;8.13;;;7.33;;
9948;SDS011;5013;51.840;8.276;2022-11-13T06:15:27;9.63;;;7.07;;
9948;SDS011;5013;51.840;8.276;2022-11-13T06:17:53;7.13;;;6.43;;
9948;SDS011;5013;51.840;8.276;2022-11-13T06:20:18;8.57;;;6.07;;
9948;SDS011;5013;51.840;8.276;2022-11-13T06:22:44;7.70;;;7.00;;
9948;SDS011;5013;51.840;8.276;2022-11-13T06:25:10;7.30;;;6.60;;
9948;SDS011;5013;51.840;8.276;2022-11-13T06:27:35;7.30;;;6.60;;
9948;SDS011;5013;51.840;8.276;2022-11-13T06:30:01;7.40;;;6.77;;
9948;SDS011;5013;51.840;8.276;2022-11-13T06:32:27;7.47;;;6.77;;
9948;SDS011;5013;51.840;8.276;2022-11-13T06:34:53;7.20;;;6.50;;
9948;SDS011;5013;51.840;8.276;2022-11-13T06:37:19;6.43;;;5.83;;
9948;SDS011;5013;51.840;8.276;2022-11-13T06:39:44;6.90;;;6.30;;
9948;SDS011;5013;51.840;8.276;2022-11-13T06:42:10;7.20;;;6.60;;
9948;SDS011;5013;51.840;8.276;2022-11-13T06:44:38;7.80;;;7.00;;
9948;SDS011;5013;51.840;8.276;2022-11-13T06:47:04;9.93;;;6.40;;
9948;SDS011;5013;51.840;8.276;2022-11-13T06:49:29;7.13;;;6.53;;
9948;SDS011;5013;51.840;8.276;2022-11-13T06:51:55;6.97;;;6.27;;
9948;SDS011;5013;51.840;8.276;2022-11-13T06:54:20;9.33;;;7.03;;
9948;SDS011;5013;51.840;8.276;2022-11-13T06:56:46;9.17;;;6.70;;
9948;SDS011;5013;51.840;8.276;2022-11-13T06:59:12;7.50;;;6.70;;
9948;SDS011;5013;51.840;8.276;2022-11-13T07:01:37;9.13;;;6.33;;
9948;SDS011;5013;51.840;8.276;2022-11-13T07:04:05;9.43;;;6.70;;
9948;SDS011;5013;51.840;8.276;2022-11-13T07:06:31;6.17;;;5.57;;
9948;SDS011;5013;51.840;8.276;2022-11-13T07:08:56;8.57;;;5.70;;
9948;SDS011;5013;51.840;8.276;2022-11-13T07:11:22;8.47;;;5.93;;
9948;SDS011;5013;51.840;8.276;2022-11-13T07:17:10;8.57;;;6.10;;
9948;SDS011;5013;51.840;8.276;2022-11-13T07:19:35;6.60;;;6.00;;
9948;SDS011;5013;51.840;8.276;2022-11-13T07:22:02;6.90;;;6.20;;
9948;SDS011;5013;51.840;8.276;2022-11-13T07:24:28;6.37;;;5.83;;
9948;SDS011;5013;51.840;8.276;2022-11-13T07:26:54;6.50;;;6.00;;
9948;SDS011;5013;51.840;8.276;2022-11-13T07:29:19;10.60;;;5.40;;
9948;SDS011;5013;51.840;8.276;2022-11-13T07:31:45;6.40;;;5.80;;
9948;SDS011;5013;51.840;8.276;2022-11-13T07:34:10;6.13;;;5.63;;
9948;SDS011;5013;51.840;8.276;2022-11-13T07:36:36;5.57;;;5.17;;
9948;SDS011;5013;51.840;8.276;2022-11-13T07:39:03;6.53;;;5.90;;
9948;SDS011;5013;51.840;8.276;2022-11-13T07:41:28;6.63;;;6.03;;
9948;SDS011;5013;51.840;8.276;2022-11-13T07:43:55;5.73;;;5.23;;
9948;SDS011;5013;51.840;8.276;2022-11-13T07:46:21;7.00;;;5.37;;
9948;SDS011;5013;51.840;8.276;2022-11-13T07:48:46;5.67;;;5.23;;
9948;SDS011;5013;51.840;8.276;2022-11-13T07:51:12;5.67;;;5.17;;
9948;SDS011;5013;51.840;8.276;2022-11-13T07:53:38;5.80;;;5.30;;
9948;SDS011;5013;51.840;8.276;2022-11-13T07:56:04;5.90;;;5.40;;
9948;SDS011;5013;51.840;8.276;2022-11-13T07:58:30;5.53;;;5.10;;
9948;SDS011;5013;51.840;8.276;2022-11-13T08:04:17;5.53;;;5.10;;
9948;SDS011;5013;51.840;8.276;2022-11-13T08:06:43;5.47;;;4.80;;
9948;SDS011;5013;51.840;8.276;2022-11-13T08:09:09;5.10;;;4.60;;
9948;SDS011;5013;51.840;8.276;2022-11-13T08:11:35;6.73;;;4.83;;
9948;SDS011;5013;51.840;8.276;2022-11-13T08:14:00;5.17;;;4.70;;
9948;SDS011;5013;51.840;8.276;2022-11-13T08:16:26;7.03;;;5.20;;
9948;SDS011;5013;51.840;8.276;2022-11-13T08:18:52;6.03;;;5.43;;
9948;SDS011;5013;51.840;8.276;2022-11-13T08:21:18;6.93;;;6.23;;
9948;SDS011;5013;51.840;8.276;2022-11-13T08:23:45;6.27;;;5.33;;
9948;SDS011;5013;51.840;8.276;2022-11-13T08:29:33;5.97;;;5.40;;
9948;SDS011;5013;51.840;8.276;2022-11-13T08:35:23;5.90;;;5.40;;
9948;SDS011;5013;51.840;8.276;2022-11-13T08:37:48;9.37;;;6.03;;
9948;SDS011;5013;51.840;8.276;2022-11-13T08:40:14;12.07;;;7.33;;
9948;SDS011;5013;51.840;8.276;2022-11-13T08:42:40;7.63;;;6.77;;
9948;SDS011;5013;51.840;8.276;2022-11-13T08:45:07;7.30;;;6.60;;
9948;SDS011;5013;51.840;8.276;2022-11-13T08:47:33;7.37;;;6.67;;
9948;SDS011;5013;51.840;8.276;2022-11-13T08:49:59;7.20;;;6.50;;
9948;SDS011;5013;51.840;8.276;2022-11-13T08:52:25;8.20;;;7.50;;
9948;SDS011;5013;51.840;8.276;2022-11-13T08:54:50;8.10;;;7.30;;
9948;SDS011;5013;51.840;8.276;2022-11-13T08:57:16;9.10;;;7.07;;
9948;SDS011;5013;51.840;8.276;2022-11-13T08:59:42;9.50;;;7.27;;
9948;SDS011;5013;51.840;8.276;2022-11-13T09:02:08;7.40;;;6.60;;
9948;SDS011;5013;51.840;8.276;2022-11-13T09:08:00;7.33;;;6.73;;
9948;SDS011;5013;51.840;8.276;2022-11-13T09:10:26;7.20;;;6.20;;
9948;SDS011;5013;51.840;8.276;2022-11-13T09:12:56;6.63;;;6.00;;
9948;SDS011;5013;51.840;8.276;2022-11-13T09:15:26;5.60;;;4.40;;
9948;SDS011;5013;51.840;8.276;2022-11-13T09:18:01;5.20;;;4.70;;
9948;SDS011;5013;51.840;8.276;2022-11-13T09:20:27;4.67;;;4.37;;
9948;SDS011;5013;51.840;8.276;2022-11-13T09:22:55;4.83;;;4.43;;
9948;SDS011;5013;51.840;8.276;2022-11-13T09:25:25;5.00;;;3.93;;
9948;SDS011;5013;51.840;8.276;2022-11-13T09:27:52;5.10;;;4.33;;
9948;SDS011;5013;51.840;8.276;2022-11-13T09:30:19;3.90;;;3.60;;
9948;SDS011;5013;51.840;8.276;2022-11-13T09:32:45;4.37;;;3.97;;
9948;SDS011;5013;51.840;8.276;2022-11-13T09:35:11;6.03;;;3.47;;
9948;SDS011;5013;51.840;8.276;2022-11-13T09:37:36;3.93;;;3.70;;
9948;SDS011;5013;51.840;8.276;2022-11-13T09:40:02;4.10;;;3.80;;
9948;SDS011;5013;51.840;8.276;2022-11-13T09:42:28;3.97;;;3.67;;
9948;SDS011;5013;51.840;8.276;2022-11-13T09:45:05;6.20;;;3.87;;
9948;SDS011;5013;51.840;8.276;2022-11-13T09:47:38;3.80;;;3.60;;
9948;SDS011;5013;51.840;8.276;2022-11-13T09:52:43;4.53;;;3.43;;
9948;SDS011;5013;51.840;8.276;2022-11-13T09:55:15;3.60;;;3.30;;
9948;SDS011;5013;51.840;8.276;2022-11-13T09:57:56;5.63;;;3.50;;
9948;SDS011;5013;51.840;8.276;2022-11-13T10:00:25;3.70;;;3.40;;
9948;SDS011;5013;51.840;8.276;2022-11-13T10:08:34;3.37;;;3.07;;
9948;SDS011;5013;51.840;8.276;2022-11-13T10:13:46;3.30;;;3.10;;
9948;SDS011;5013;51.840;8.276;2022-11-13T10:18:54;4.67;;;3.00;;
9948;SDS011;5013;51.840;8.276;2022-11-13T10:24:46;2.77;;;2.50;;
9948;SDS011;5013;51.840;8.276;2022-11-13T10:27:16;3.37;;;3.10;;
9948;SDS011;5013;51.840;8.276;2022-11-13T10:29:42;2.63;;;2.53;;
9948;SDS011;5013;51.840;8.276;2022-11-13T10:32:16;3.03;;;2.83;;
9948;SDS011;5013;51.840;8.276;2022-11-13T10:34:55;4.17;;;2.83;;
9948;SDS011;5013;51.840;8.276;2022-11-13T10:40:05;2.90;;;2.70;;
9948;SDS011;5013;51.840;8.276;2022-11-13T10:42:36;2.80;;;2.60;;
9948;SDS011;5013;51.840;8.276;2022-11-13T10:45:04;2.33;;;2.23;;
9948;SDS011;5013;51.840;8.276;2022-11-13T10:47:42;2.23;;;2.13;;
9948;SDS011;5013;51.840;8.276;2022-11-13T10:50:11;2.70;;;2.50;;
9948;SDS011;5013;51.840;8.276;2022-11-13T10:52:46;2.40;;;2.30;;
9948;SDS011;5013;51.840;8.276;2022-11-13T10:57:59;2.70;;;2.60;;
9948;SDS011;5013;51.840;8.276;2022-11-13T11:00:30;6.53;;;2.63;;
9948;SDS011;5013;51.840;8.276;2022-11-13T11:02:58;3.03;;;2.83;;
9948;SDS011;5013;51.840;8.276;2022-11-13T11:05:24;2.90;;;2.70;;
9948;SDS011;5013;51.840;8.276;2022-11-13T11:07:54;2.77;;;2.57;;
9948;SDS011;5013;51.840;8.276;2022-11-13T11:10:31;2.30;;;2.20;;
9948;SDS011;5013;51.840;8.276;2022-11-13T11:13:02;2.83;;;2.67;;
9948;SDS011;5013;51.840;8.276;2022-11-13T11:15:41;2.50;;;2.40;;
9948;SDS011;5013;51.840;8.276;2022-11-13T11:18:27;3.10;;;2.80;;
9948;SDS011;5013;51.840;8.276;2022-11-13T11:21:01;3.07;;;2.77;;
9948;SDS011;5013;51.840;8.276;2022-11-13T11:23:38;2.70;;;2.60;;
9948;SDS011;5013;51.840;8.276;2022-11-13T11:26:13;2.80;;;2.60;;
9948;SDS011;5013;51.840;8.276;2022-11-13T11:32:13;2.60;;;2.50;;
9948;SDS011;5013;51.840;8.276;2022-11-13T11:34:48;3.23;;;3.03;;
9948;SDS011;5013;51.840;8.276;2022-11-13T11:37:24;4.17;;;3.87;;
9948;SDS011;5013;51.840;8.276;2022-11-13T11:39:58;2.90;;;2.70;;
9948;SDS011;5013;51.840;8.276;2022-11-13T11:45:27;2.70;;;2.60;;
9948;SDS011;5013;51.840;8.276;2022-11-13T11:47:54;5.10;;;3.60;;
9948;SDS011;5013;51.840;8.276;2022-11-13T11:50:28;2.50;;;2.30;;
9948;SDS011;5013;51.840;8.276;2022-11-13T11:53:11;2.70;;;2.50;;
9948;SDS011;5013;51.840;8.276;2022-11-13T11:55:43;2.40;;;2.30;;
9948;SDS011;5013;51.840;8.276;2022-11-13T12:16:06;2.73;;;2.63;;
9948;SDS011;5013;51.840;8.276;2022-11-13T12:27:51;2.10;;;2.00;;
9948;SDS011;5013;51.840;8.276;2022-11-13T12:35:45;1.90;;;1.80;;
9948;SDS011;5013;51.840;8.276;2022-11-13T12:38:21;1.90;;;1.80;;
9948;SDS011;5013;51.840;8.276;2022-11-13T12:44:19;2.40;;;2.30;;
9948;SDS011;5013;51.840;8.276;2022-11-13T12:46:49;2.20;;;2.10;;
9948;SDS011;5013;51.840;8.276;2022-11-13T12:51:58;2.13;;;2.03;;
9948;SDS011;5013;51.840;8.276;2022-11-13T12:54:39;2.20;;;2.00;;
9948;SDS011;5013;51.840;8.276;2022-11-13T12:59:46;2.07;;;1.97;;
9948;SDS011;5013;51.840;8.276;2022-11-13T13:10:21;2.40;;;2.30;;
9948;SDS011;5013;51.840;8.276;2022-11-13T13:13:43;2.77;;;2.57;;
9948;SDS011;5013;51.840;8.276;2022-11-13T13:16:21;2.77;;;2.57;;
9948;SDS011;5013;51.840;8.276;2022-11-13T13:18:50;2.50;;;2.30;;
9948;SDS011;5013;51.840;8.276;2022-11-13T13:21:17;1.70;;;1.70;;
9948;SDS011;5013;51.840;8.276;2022-11-13T13:23:45;1.90;;;1.80;;
9948;SDS011;5013;51.840;8.276;2022-11-13T13:28:45;1.70;;;1.60;;
9948;SDS011;5013;51.840;8.276;2022-11-13T13:33:55;1.80;;;1.80;;
9948;SDS011;5013;51.840;8.276;2022-11-13T13:36:46;1.73;;;1.70;;
9948;SDS011;5013;51.840;8.276;2022-11-13T13:40:28;1.93;;;1.83;;
9948;SDS011;5013;51.840;8.276;2022-11-13T13:45:49;1.97;;;1.73;;
9948;SDS011;5013;51.840;8.276;2022-11-13T13:48:36;1.73;;;1.63;;
9948;SDS011;5013;51.840;8.276;2022-11-13T13:51:09;2.23;;;1.73;;
9948;SDS011;5013;51.840;8.276;2022-11-13T13:53:44;1.63;;;1.53;;
9948;SDS011;5013;51.840;8.276;2022-11-13T13:56:12;1.77;;;1.67;;
9948;SDS011;5013;51.840;8.276;2022-11-13T13:58:38;2.37;;;1.70;;
9948;SDS011;5013;51.840;8.276;2022-11-13T14:01:05;2.50;;;1.70;;
9948;SDS011;5013;51.840;8.276;2022-11-13T14:03:36;2.07;;;1.97;;
9948;SDS011;5013;51.840;8.276;2022-11-13T14:06:09;2.20;;;2.00;;
9948;SDS011;5013;51.840;8.276;2022-11-13T14:08:46;1.87;;;1.77;;
9948;SDS011;5013;51.840;8.276;2022-11-13T14:13:44;1.90;;;1.80;;
9948;SDS011;5013;51.840;8.276;2022-11-13T14:16:09;2.50;;;2.30;;
9948;SDS011;5013;51.840;8.276;2022-11-13T14:18:35;2.47;;;2.37;;
9948;SDS011;5013;51.840;8.276;2022-11-13T14:21:02;2.90;;;2.70;;
9948;SDS011;5013;51.840;8.276;2022-11-13T14:23:34;3.00;;;2.80;;
9948;SDS011;5013;51.840;8.276;2022-11-13T14:26:03;2.37;;;2.27;;
9948;SDS011;5013;51.840;8.276;2022-11-13T14:28:33;2.87;;;2.67;;
9948;SDS011;5013;51.840;8.276;2022-11-13T14:31:18;2.77;;;2.60;;
9948;SDS011;5013;51.840;8.276;2022-11-13T14:33:49;3.10;;;2.90;;
9948;SDS011;5013;51.840;8.276;2022-11-13T14:36:15;2.77;;;2.50;;
9948;SDS011;5013;51.840;8.276;2022-11-13T14:38:50;2.70;;;2.60;;
9948;SDS011;5013;51.840;8.276;2022-11-13T14:41:18;3.03;;;2.83;;
9948;SDS011;5013;51.840;8.276;2022-11-13T14:43:59;5.83;;;3.97;;
9948;SDS011;5013;51.840;8.276;2022-11-13T14:46:43;4.77;;;4.30;;
9948;SDS011;5013;51.840;8.276;2022-11-13T14:52:20;3.90;;;3.20;;
9948;SDS011;5013;51.840;8.276;2022-11-13T14:54:58;2.47;;;2.27;;
9948;SDS011;5013;51.840;8.276;2022-11-13T14:57:27;2.17;;;2.03;;
9948;SDS011;5013;51.840;8.276;2022-11-13T14:59:53;2.30;;;2.20;;
9948;SDS011;5013;51.840;8.276;2022-11-13T15:02:18;2.30;;;2.20;;
9948;SDS011;5013;51.840;8.276;2022-11-13T15:04:44;2.37;;;2.17;;
9948;SDS011;5013;51.840;8.276;2022-11-13T15:07:29;2.23;;;2.13;;
9948;SDS011;5013;51.840;8.276;2022-11-13T15:09:57;2.10;;;2.00;;
9948;SDS011;5013;51.840;8.276;2022-11-13T15:12:23;2.10;;;2.00;;
9948;SDS011;5013;51.840;8.276;2022-11-13T15:14:49;3.43;;;3.13;;
9948;SDS011;5013;51.840;8.276;2022-11-13T15:17:16;4.90;;;4.50;;
9948;SDS011;5013;51.840;8.276;2022-11-13T15:19:43;6.93;;;6.33;;
9948;SDS011;5013;51.840;8.276;2022-11-13T15:22:12;8.43;;;7.10;;
9948;SDS011;5013;51.840;8.276;2022-11-13T15:24:39;11.90;;;6.57;;
9948;SDS011;5013;51.840;8.276;2022-11-13T15:27:05;5.60;;;4.73;;
9948;SDS011;5013;51.840;8.276;2022-11-13T15:29:33;3.67;;;3.37;;
9948;SDS011;5013;51.840;8.276;2022-11-13T15:31:58;3.13;;;2.93;;
9948;SDS011;5013;51.840;8.276;2022-11-13T15:34:24;2.53;;;2.33;;
9948;SDS011;5013;51.840;8.276;2022-11-13T15:36:50;2.37;;;2.23;;
9948;SDS011;5013;51.840;8.276;2022-11-13T15:39:16;5.00;;;4.50;;
9948;SDS011;5013;51.840;8.276;2022-11-13T15:41:42;10.07;;;8.20;;
9948;SDS011;5013;51.840;8.276;2022-11-13T15:44:12;9.03;;;7.00;;
9948;SDS011;5013;51.840;8.276;2022-11-13T15:46:38;7.13;;;6.10;;
9948;SDS011;5013;51.840;8.276;2022-11-13T15:49:04;8.40;;;6.80;;
9948;SDS011;5013;51.840;8.276;2022-11-13T15:51:38;7.60;;;6.80;;
9948;SDS011;5013;51.840;8.276;2022-11-13T15:56:31;20.10;;;14.40;;
9948;SDS011;5013;51.840;8.276;2022-11-13T15:58:57;24.73;;;15.00;;
9948;SDS011;5013;51.840;8.276;2022-11-13T16:01:23;20.80;;;13.77;;
9948;SDS011;5013;51.840;8.276;2022-11-13T16:03:49;16.23;;;11.83;;
9948;SDS011;5013;51.840;8.276;2022-11-13T16:06:16;11.90;;;9.83;;
9948;SDS011;5013;51.840;8.276;2022-11-13T16:08:43;8.67;;;7.77;;
9948;SDS011;5013;51.840;8.276;2022-11-13T16:11:13;8.03;;;7.23;;
9948;SDS011;5013;51.840;8.276;2022-11-13T16:13:43;10.20;;;7.00;;
9948;SDS011;5013;51.840;8.276;2022-11-13T16:16:22;9.00;;;7.07;;
9948;SDS011;5013;51.840;8.276;2022-11-13T16:18:51;13.37;;;8.00;;
9948;SDS011;5013;51.840;8.276;2022-11-13T16:21:18;14.03;;;9.60;;
9948;SDS011;5013;51.840;8.276;2022-11-13T16:23:44;54.90;;;39.13;;
9948;SDS011;5013;51.840;8.276;2022-11-13T16:26:14;104.37;;;81.17;;
9948;SDS011;5013;51.840;8.276;2022-11-13T16:28:44;51.27;;;39.73;;
9948;SDS011;5013;51.840;8.276;2022-11-13T16:31:11;64.93;;;47.90;;
9948;SDS011;5013;51.840;8.276;2022-11-13T16:33:37;49.83;;;36.57;;
9948;SDS011;5013;51.840;8.276;2022-11-13T16:36:03;65.43;;;47.10;;
9948;SDS011;5013;51.840;8.276;2022-11-13T16:38:29;32.00;;;24.77;;
9948;SDS011;5013;51.840;8.276;2022-11-13T16:40:55;24.33;;;17.40;;
9948;SDS011;5013;51.840;8.276;2022-11-13T16:43:20;22.00;;;16.57;;
9948;SDS011;5013;51.840;8.276;2022-11-13T16:45:46;18.33;;;14.77;;
9948;SDS011;5013;51.840;8.276;2022-11-13T16:48:12;111.20;;;69.93;;
9948;SDS011;5013;51.840;8.276;2022-11-13T16:50:39;325.30;;;181.33;;
9948;SDS011;5013;51.840;8.276;2022-11-13T16:53:05;311.30;;;179.67;;
9948;SDS011;5013;51.840;8.276;2022-11-13T16:55:32;186.90;;;116.90;;
9948;SDS011;5013;51.840;8.276;2022-11-13T16:58:00;97.63;;;62.43;;
9948;SDS011;5013;51.840;8.276;2022-11-13T17:00:27;58.27;;;39.70;;
9948;SDS011;5013;51.840;8.276;2022-11-13T17:02:52;41.83;;;30.43;;
9948;SDS011;5013;51.840;8.276;2022-11-13T17:05:18;22.70;;;15.77;;
9948;SDS011;5013;51.840;8.276;2022-11-13T17:07:45;16.80;;;13.13;;
9948;SDS011;5013;51.840;8.276;2022-11-13T17:10:15;15.03;;;12.03;;
9948;SDS011;5013;51.840;8.276;2022-11-13T17:12:42;16.30;;;12.47;;
9948;SDS011;5013;51.840;8.276;2022-11-13T17:15:07;12.97;;;10.67;;
9948;SDS011;5013;51.840;8.276;2022-11-13T17:17:34;13.33;;;10.33;;
9948;SDS011;5013;51.840;8.276;2022-11-13T17:19:59;13.07;;;9.67;;
9948;SDS011;5013;51.840;8.276;2022-11-13T17:22:25;12.70;;;9.27;;
9948;SDS011;5013;51.840;8.276;2022-11-13T17:24:51;11.23;;;9.70;;